createdAt,value
2017-10-12T00:00:40.888Z,81.55
2017-10-12T00:01:51.359Z,81.74
2017-10-12T00:03:01.836Z,81.74
2017-10-12T00:04:11.995Z,81.65
2017-10-12T00:05:22.436Z,81.55
2017-10-12T00:06:32.910Z,81.84
2017-10-12T00:07:43.016Z,81.45
2017-10-12T00:08:53.535Z,81.65
2017-10-12T00:10:04.058Z,81.74
2017-10-12T00:11:14.547Z,81.78
2017-10-12T00:12:24.986Z,81.74
2017-10-12T00:13:35.137Z,81.45
2017-10-12T00:14:45.584Z,81.74
2017-10-12T00:15:56.017Z,81.93
2017-10-12T00:17:06.143Z,81.93
2017-10-12T00:18:16.622Z,82.17
2017-10-12T00:19:27.062Z,82.17
2017-10-12T00:20:37.504Z,82.26
2017-10-12T00:21:48.951Z,82.17
2017-10-12T00:22:59.081Z,82.17
2017-10-12T00:24:09.337Z,82.26
2017-10-12T00:25:19.775Z,82.26
2017-10-12T00:26:30.232Z,82.17
2017-10-12T00:27:40.673Z,82.26
2017-10-12T00:28:51.197Z,82.26
2017-10-12T00:30:01.652Z,82.17
2017-10-12T00:31:12.115Z,82.22
2017-10-12T00:32:22.612Z,82.17
2017-10-12T00:33:33.148Z,82.03
2017-10-12T00:34:43.589Z,81.97
2017-10-12T00:35:54.037Z,81.97
2017-10-12T00:37:04.518Z,82.12
2017-10-12T00:38:14.954Z,82.22
2017-10-12T00:39:25.412Z,82.03
2017-10-12T00:40:35.878Z,81.93
2017-10-12T00:41:46.442Z,82.22
2017-10-12T00:42:56.548Z,82.31
2017-10-12T00:44:06.994Z,82.79
2017-10-12T00:45:17.910Z,82.79
2017-10-12T00:46:28.365Z,82.7
2017-10-12T00:47:38.803Z,82.79
2017-10-12T00:48:49.606Z,82.41
2017-10-12T00:49:59.777Z,82.51
2017-10-12T00:51:10.453Z,82.7
2017-10-12T00:52:21.046Z,82.6
2017-10-12T00:53:30.922Z,82.89
2017-10-12T00:54:41.392Z,82.7
2017-10-12T00:55:51.517Z,83.08
2017-10-12T00:57:01.991Z,82.89
2017-10-12T00:58:12.433Z,82.89
2017-10-12T00:59:22.563Z,82.7
2017-10-12T01:00:32.602Z,82.7
2017-10-12T01:01:43.046Z,82.51
2017-10-12T01:02:53.160Z,82.7
2017-10-12T01:04:03.360Z,82.7
2017-10-12T01:05:13.824Z,83.08
2017-10-12T01:06:24.264Z,82.98
2017-10-12T01:07:34.924Z,82.89
2017-10-12T01:08:45.357Z,82.6
2017-10-12T01:09:55.849Z,83.65
2017-10-12T01:11:06.299Z,83.37
2017-10-12T01:12:16.743Z,83.65
2017-10-12T01:13:27.198Z,83.46
2017-10-12T01:14:37.722Z,83.65
2017-10-12T01:15:47.442Z,83.56
2017-10-12T01:16:57.930Z,83.37
2017-10-12T01:18:08.373Z,83.56
2017-10-12T01:19:18.829Z,83.56
2017-10-12T01:20:29.280Z,83.65
2017-10-12T01:21:39.728Z,83.65
2017-10-12T01:22:49.779Z,83.46
2017-10-12T01:24:00.277Z,83.37
2017-10-12T01:25:10.712Z,83.37
2017-10-12T01:26:21.166Z,83.46
2017-10-12T01:27:31.600Z,83.65
2017-10-12T01:28:42.258Z,83.46
2017-10-12T01:29:52.374Z,83.46
2017-10-12T01:31:02.809Z,83.37
2017-10-12T01:32:13.129Z,83.37
2017-10-12T01:33:23.164Z,83.65
2017-10-12T01:34:33.616Z,83.37
2017-10-12T01:35:44.356Z,83.37
2017-10-12T01:36:54.477Z,83.46
2017-10-12T01:38:04.962Z,83.46
2017-10-12T01:39:14.970Z,83.46
2017-10-12T01:40:25.407Z,83.46
2017-10-12T01:41:35.866Z,83.65
2017-10-12T01:42:46.431Z,83.46
2017-10-12T01:43:56.864Z,83.65
2017-10-12T01:45:07.412Z,83.65
2017-10-12T01:46:17.850Z,83.6
2017-10-12T01:47:28.301Z,83.56
2017-10-12T01:48:38.725Z,83.65
2017-10-12T01:49:49.183Z,83.37
2017-10-12T01:50:59.845Z,83.46
2017-10-12T01:52:10.364Z,83.65
2017-10-12T01:53:20.803Z,83.65
2017-10-12T01:54:31.239Z,83.65
2017-10-12T01:55:41.708Z,83.37
2017-10-12T01:56:52.196Z,83.37
2017-10-12T01:58:02.657Z,83.37
2017-10-12T01:59:13.106Z,83.46
2017-10-12T02:00:23.606Z,83.56
2017-10-12T02:01:34.049Z,83.94
2017-10-12T02:02:44.147Z,83.94
2017-10-12T02:03:54.610Z,83.84
2017-10-12T02:05:05.076Z,83.65
2017-10-12T02:06:15.512Z,83.65
2017-10-12T02:07:26.002Z,83.84
2017-10-12T02:08:36.105Z,83.75
2017-10-12T02:09:46.527Z,84.23
2017-10-12T02:10:56.983Z,83.94
2017-10-12T02:12:07.452Z,84.23
2017-10-12T02:13:17.913Z,84.13
2017-10-12T02:14:28.339Z,84.03
2017-10-12T02:15:38.142Z,83.75
2017-10-12T02:16:48.253Z,84.13
2017-10-12T02:17:58.723Z,83.94
2017-10-12T02:19:09.208Z,84.13
2017-10-12T02:20:19.223Z,83.84
2017-10-12T02:21:30.646Z,83.75
2017-10-12T02:22:40.820Z,84.42
2017-10-12T02:23:51.015Z,84.23
2017-10-12T02:25:01.476Z,84.03
2017-10-12T02:26:12.017Z,84.42
2017-10-12T02:27:22.480Z,84.32
2017-10-12T02:28:32.610Z,84.32
2017-10-12T02:29:43.102Z,84.52
2017-10-12T02:30:53.531Z,84.7
2017-10-12T02:32:03.641Z,84.99
2017-10-12T02:33:13.758Z,84.61
2017-10-12T02:34:24.206Z,84.89
2017-10-12T02:35:34.332Z,84.99
2017-10-12T02:36:44.451Z,84.8
2017-10-12T02:37:54.884Z,84.7
2017-10-12T02:39:05.481Z,85.18
2017-10-12T02:40:16.027Z,84.7
2017-10-12T02:41:26.473Z,84.66
2017-10-12T02:42:36.626Z,85.09
2017-10-12T02:43:47.096Z,85.05
2017-10-12T02:44:57.547Z,85.05
2017-10-12T02:46:07.991Z,85.18
2017-10-12T02:47:18.528Z,85.18
2017-10-12T02:48:28.654Z,85.18
2017-10-12T02:49:39.103Z,85.05
2017-10-12T02:50:49.226Z,85.09
2017-10-12T02:51:59.766Z,85.05
2017-10-12T02:53:10.209Z,84.95
2017-10-12T02:54:20.697Z,85.33
2017-10-12T02:55:31.134Z,85.62
2017-10-12T02:56:41.759Z,85.71
2017-10-12T02:57:52.236Z,85.62
2017-10-12T02:59:02.906Z,85.52
2017-10-12T03:00:13.335Z,85.62
2017-10-12T03:01:23.772Z,85.33
2017-10-12T03:02:34.247Z,85.42
2017-10-12T03:03:44.672Z,85.42
2017-10-12T03:04:55.141Z,85.75
2017-10-12T03:06:05.574Z,85.66
2017-10-12T03:07:16.286Z,85.62
2017-10-12T03:08:26.973Z,85.75
2017-10-12T03:09:37.433Z,85.66
2017-10-12T03:10:48.106Z,85.66
2017-10-12T03:11:58.574Z,85.66
2017-10-12T03:13:09.103Z,85.66
2017-10-12T03:14:19.540Z,85.28
2017-10-12T03:15:30.041Z,85.75
2017-10-12T03:16:40.270Z,85.71
2017-10-12T03:17:50.719Z,85.42
2017-10-12T03:19:01.232Z,85.47
2017-10-12T03:20:11.649Z,85.38
2017-10-12T03:21:22.159Z,86.04
2017-10-12T03:22:32.640Z,85.66
2017-10-12T03:23:43.089Z,85.85
2017-10-12T03:24:53.100Z,85.81
2017-10-12T03:26:03.556Z,85.85
2017-10-12T03:27:13.715Z,85.47
2017-10-12T03:28:24.314Z,85.75
2017-10-12T03:29:34.765Z,85.85
2017-10-12T03:30:45.296Z,85.85
2017-10-12T03:31:55.729Z,85.94
2017-10-12T03:33:06.233Z,86.14
2017-10-12T03:34:16.688Z,85.85
2017-10-12T03:35:27.272Z,85.47
2017-10-12T03:36:37.712Z,85.38
2017-10-12T03:37:48.181Z,85.66
2017-10-12T03:38:58.605Z,85.85
2017-10-12T03:40:09.094Z,85.47
2017-10-12T03:41:19.533Z,85.18
2017-10-12T03:42:30.092Z,85.38
2017-10-12T03:43:40.661Z,85.66
2017-10-12T03:44:51.296Z,85.66
2017-10-12T03:46:01.811Z,85.09
2017-10-12T03:47:12.269Z,85.09
2017-10-12T03:48:22.701Z,85.66
2017-10-12T03:49:33.151Z,85.75
2017-10-12T03:50:43.622Z,86.04
2017-10-12T03:51:54.099Z,85.66
2017-10-12T03:53:04.540Z,86.23
2017-10-12T03:54:14.970Z,85.85
2017-10-12T03:55:25.428Z,86.61
2017-10-12T03:56:35.211Z,86.23
2017-10-12T03:57:45.669Z,86.8
2017-10-12T03:58:56.118Z,86.52
2017-10-12T04:00:06.610Z,86.71
2017-10-12T04:01:17.068Z,87.29
2017-10-12T04:02:27.524Z,86.71
2017-10-12T04:03:37.957Z,87.09
2017-10-12T04:04:48.397Z,87.29
2017-10-12T04:05:58.890Z,87.09
2017-10-12T04:07:09.325Z,87.38
2017-10-12T04:08:19.477Z,87
2017-10-12T04:09:30.058Z,87.09
2017-10-12T04:10:40.512Z,87.19
2017-10-12T04:11:50.976Z,87.48
2017-10-12T04:13:01.428Z,87.66
2017-10-12T04:14:11.915Z,87.66
2017-10-12T04:15:22.013Z,87.66
2017-10-12T04:16:32.461Z,87.29
2017-10-12T04:17:44.120Z,87.29
2017-10-12T04:18:54.614Z,87.48
2017-10-12T04:20:04.733Z,87.19
2017-10-12T04:21:15.196Z,87.57
2017-10-12T04:22:25.363Z,87.29
2017-10-12T04:23:35.813Z,87.19
2017-10-12T04:24:46.343Z,87.66
2017-10-12T04:25:56.915Z,87.38
2017-10-12T04:27:07.381Z,87.48
2017-10-12T04:28:17.813Z,87.48
2017-10-12T04:29:28.293Z,87.66
2017-10-12T04:30:38.517Z,87.38
2017-10-12T04:31:49.069Z,87.38
2017-10-12T04:32:59.530Z,87.57
2017-10-12T04:34:09.992Z,87.48
2017-10-12T04:35:20.597Z,87.66
2017-10-12T04:36:30.756Z,88.15
2017-10-12T04:37:41.231Z,87.86
2017-10-12T04:38:52.658Z,87.48
2017-10-12T04:40:03.111Z,87.48
2017-10-12T04:41:13.607Z,87.86
2017-10-12T04:42:24.041Z,87.57
2017-10-12T04:43:34.530Z,87.86
2017-10-12T04:44:45.058Z,88.81
2017-10-12T04:45:55.713Z,88.62
2017-10-12T04:47:05.839Z,88.43
2017-10-12T04:48:16.283Z,88.43
2017-10-12T04:49:26.387Z,88.62
2017-10-12T04:50:36.818Z,88.81
2017-10-12T04:51:47.445Z,88.91
2017-10-12T04:52:57.876Z,88.91
2017-10-12T04:54:08.321Z,89.1
2017-10-12T04:55:18.785Z,88.62
2017-10-12T04:56:29.254Z,88.62
2017-10-12T04:57:39.486Z,88.62
2017-10-12T04:58:49.665Z,88.72
2017-10-12T05:00:00.118Z,89.67
2017-10-12T05:01:10.583Z,89.58
2017-10-12T05:02:21.162Z,89.77
2017-10-12T05:03:31.604Z,89.39
2017-10-12T05:04:41.830Z,89.67
2017-10-12T05:05:52.402Z,89.39
2017-10-12T05:07:02.835Z,90.16
2017-10-12T05:08:13.296Z,89.87
2017-10-12T05:09:23.511Z,89.87
2017-10-12T05:10:33.965Z,89.67
2017-10-12T05:11:44.612Z,89.77
2017-10-12T05:12:55.123Z,89.67
2017-10-12T05:14:05.556Z,90.34
2017-10-12T05:15:15.690Z,90.53
2017-10-12T05:16:25.866Z,90.25
2017-10-12T05:17:36.369Z,90.53
2017-10-12T05:18:46.519Z,90.34
2017-10-12T05:19:56.648Z,90.53
2017-10-12T05:21:07.091Z,90.16
2017-10-12T05:22:17.549Z,90.16
2017-10-12T05:23:28.011Z,89.91
2017-10-12T05:24:38.124Z,90.63
2017-10-12T05:25:48.587Z,90.63
2017-10-12T05:26:59.122Z,90.58
2017-10-12T05:28:09.295Z,90.06
2017-10-12T05:29:19.747Z,89.77
2017-10-12T05:30:30.205Z,89.96
2017-10-12T05:31:39.995Z,89.96
2017-10-12T05:32:50.462Z,90.16
2017-10-12T05:34:01.134Z,90.01
2017-10-12T05:35:11.570Z,89.91
2017-10-12T05:36:22.065Z,89.91
2017-10-12T05:37:32.526Z,89.72
2017-10-12T05:38:43.036Z,90.3
2017-10-12T05:39:53.495Z,89.72
2017-10-12T05:41:03.974Z,90.3
2017-10-12T05:42:14.195Z,90.2
2017-10-12T05:43:24.650Z,89.91
2017-10-12T05:44:35.094Z,89.81
2017-10-12T05:45:45.528Z,89.91
2017-10-12T05:46:56.083Z,89.72
2017-10-12T05:48:06.524Z,90.1
2017-10-12T05:49:16.993Z,89.72
2017-10-12T05:50:27.460Z,89.24
2017-10-12T05:51:37.915Z,89.34
2017-10-12T05:52:48.380Z,89.72
2017-10-12T05:53:58.841Z,89.34
2017-10-12T05:55:09.283Z,89.72
2017-10-12T05:56:19.749Z,89.72
2017-10-12T05:57:30.182Z,89.58
2017-10-12T05:58:40.673Z,89.48
2017-10-12T05:59:51.139Z,88.71
2017-10-12T06:01:01.253Z,89.09
2017-10-12T06:02:11.278Z,89
2017-10-12T06:03:21.748Z,89
2017-10-12T06:04:32.297Z,89
2017-10-12T06:05:42.752Z,89.19
2017-10-12T06:06:53.277Z,89
2017-10-12T06:08:03.408Z,89.09
2017-10-12T06:09:13.878Z,88.9
2017-10-12T06:10:24.329Z,89.09
2017-10-12T06:11:34.791Z,89.09
2017-10-12T06:12:44.946Z,89.09
2017-10-12T06:13:55.430Z,89.09
2017-10-12T06:15:05.684Z,88.81
2017-10-12T06:16:16.135Z,88.81
2017-10-12T06:17:26.637Z,89
2017-10-12T06:18:37.095Z,88.9
2017-10-12T06:19:47.546Z,88.9
2017-10-12T06:20:57.982Z,89
2017-10-12T06:22:08.460Z,88.9
2017-10-12T06:23:18.925Z,88.9
2017-10-12T06:24:29.471Z,88.62
2017-10-12T06:25:39.950Z,89.76
2017-10-12T06:26:51.012Z,89.86
2017-10-12T06:28:01.054Z,89.95
2017-10-12T06:29:11.512Z,90.72
2017-10-12T06:30:21.962Z,90.63
2017-10-12T06:31:32.397Z,90.24
2017-10-12T06:32:43.000Z,91.3
2017-10-12T06:33:53.462Z,91.11
2017-10-12T06:35:03.995Z,91.2
2017-10-12T06:36:14.663Z,91.49
2017-10-12T06:37:25.119Z,91.2
2017-10-12T06:38:35.254Z,91.58
2017-10-12T06:39:45.681Z,91.97
2017-10-12T06:40:56.166Z,91.87
2017-10-12T06:42:06.376Z,91.68
2017-10-12T06:43:16.816Z,91.97
2017-10-12T06:44:27.280Z,91.77
2017-10-12T06:45:37.717Z,91.87
2017-10-12T06:46:48.190Z,91.97
2017-10-12T06:47:58.311Z,91.68
2017-10-12T06:49:08.757Z,91.58
2017-10-12T06:50:19.290Z,91.58
2017-10-12T06:51:29.737Z,91.39
2017-10-12T06:52:39.856Z,91.68
2017-10-12T06:53:50.527Z,91.77
2017-10-12T06:55:00.643Z,91.11
2017-10-12T06:56:11.123Z,91.68
2017-10-12T06:57:21.623Z,91.49
2017-10-12T06:58:31.773Z,91.34
2017-10-12T06:59:42.233Z,91.58
2017-10-12T07:00:52.715Z,90.67
2017-10-12T07:02:02.758Z,90.86
2017-10-12T07:03:12.464Z,90.67
2017-10-12T07:04:22.598Z,89.81
2017-10-12T07:05:33.152Z,89.62
2017-10-12T07:06:43.635Z,89.14
2017-10-12T07:07:54.091Z,89.18
2017-10-12T07:09:04.554Z,88.03
2017-10-12T07:10:15.240Z,87.7
2017-10-12T07:11:25.712Z,86.35
2017-10-12T07:12:36.141Z,85.68
2017-10-12T07:13:46.612Z,85.1
2017-10-12T07:14:57.163Z,84.66
2017-10-12T07:16:07.613Z,83.89
2017-10-12T07:17:18.194Z,83.18
2017-10-12T07:18:28.672Z,83.56
2017-10-12T07:19:39.213Z,83.65
2017-10-12T07:20:50.370Z,82.74
2017-10-12T07:22:00.509Z,81.53
2017-10-12T07:23:10.637Z,80.47
2017-10-12T07:24:21.070Z,80.22
2017-10-12T07:25:31.514Z,78.69
2017-10-12T07:26:41.959Z,73.96
2017-10-12T07:27:52.391Z,72.88
2017-10-12T07:29:02.207Z,73.39
2017-10-12T07:30:12.656Z,73.78
2017-10-12T07:31:23.134Z,74.51
2017-10-12T07:32:33.585Z,70.72
2017-10-12T07:33:44.076Z,71.91
2017-10-12T07:34:54.199Z,68.35
2017-10-12T07:36:04.677Z,68.38
2017-10-12T07:37:15.148Z,68.23
2017-10-12T07:38:25.615Z,69.09
2017-10-12T07:39:36.088Z,67.55
2017-10-12T07:40:46.564Z,66.72
2017-10-12T07:41:57.067Z,66.56
2017-10-12T07:43:07.534Z,64.37
2017-10-12T07:44:17.657Z,65.37
2017-10-12T07:45:28.105Z,64.79
2017-10-12T07:46:38.565Z,63.5
2017-10-12T07:47:49.004Z,64.18
2017-10-12T07:48:59.476Z,63.76
2017-10-12T07:50:09.944Z,58.77
2017-10-12T07:51:20.453Z,60.83
2017-10-12T07:52:30.920Z,60.86
2017-10-12T07:53:40.965Z,60.99
2017-10-12T07:54:51.418Z,60.44
2017-10-12T07:56:01.874Z,55.34
2017-10-12T07:57:12.566Z,57.11
2017-10-12T07:58:23.283Z,55
2017-10-12T07:59:33.732Z,52.22
2017-10-12T08:00:44.076Z,50.6
2017-10-12T08:01:54.572Z,49.95
2017-10-12T08:03:05.064Z,45.58
2017-10-12T08:04:15.513Z,45.97
2017-10-12T08:05:26.142Z,47.23
2017-10-12T08:06:36.606Z,45.56
2017-10-12T08:07:47.100Z,45.95
2017-10-12T08:08:57.691Z,46.99
2017-10-12T08:10:08.153Z,49.87
2017-10-12T08:11:18.276Z,48.59
2017-10-12T08:12:28.775Z,48.18
2017-10-12T08:13:38.471Z,47.41
2017-10-12T08:14:48.929Z,49.12
2017-10-12T08:15:59.637Z,48.9
2017-10-12T08:17:09.767Z,49
2017-10-12T08:18:20.207Z,49.39
2017-10-12T08:19:30.677Z,49.49
2017-10-12T08:20:41.118Z,49.65
2017-10-12T08:21:51.514Z,50.84
2017-10-12T08:23:02.003Z,49.97
2017-10-12T08:24:12.567Z,50.62
2017-10-12T08:25:23.028Z,51.1
2017-10-12T08:26:33.475Z,51.01
2017-10-12T08:27:44.153Z,52.33
2017-10-12T08:28:54.637Z,51.73
2017-10-12T08:30:05.114Z,51.25
2017-10-12T08:31:15.557Z,52.11
2017-10-12T08:32:25.712Z,53.34
2017-10-12T08:33:37.309Z,53.7
2017-10-12T08:34:47.870Z,54.54
2017-10-12T08:35:58.337Z,54.74
2017-10-12T08:37:09.027Z,55.48
2017-10-12T08:38:19.501Z,55.67
2017-10-12T08:39:29.944Z,55.67
2017-10-12T08:40:40.095Z,56.44
2017-10-12T08:41:50.555Z,56.8
2017-10-12T08:43:01.230Z,57.57
2017-10-12T08:44:11.762Z,58.05
2017-10-12T08:45:22.240Z,58.02
2017-10-12T08:46:32.313Z,58.22
2017-10-12T08:47:42.449Z,59.08
2017-10-12T08:48:52.271Z,58.5
2017-10-12T08:50:02.860Z,58.67
2017-10-12T08:51:13.336Z,58.22
2017-10-12T08:52:24.009Z,58.67
2017-10-12T08:53:34.144Z,58.76
2017-10-12T08:54:44.618Z,58.76
2017-10-12T08:55:54.775Z,59.02
2017-10-12T08:57:05.239Z,59.12
2017-10-12T08:58:15.720Z,59.22
2017-10-12T08:59:26.166Z,58.54
2017-10-12T09:00:37.276Z,58.73
2017-10-12T09:01:47.917Z,58.64
2017-10-12T09:02:58.355Z,59.22
2017-10-12T09:04:08.488Z,59.41
2017-10-12T09:05:18.984Z,59.31
2017-10-12T09:06:29.425Z,59.47
2017-10-12T09:07:40.873Z,60.24
2017-10-12T09:08:51.030Z,60.14
2017-10-12T09:10:01.504Z,60.34
2017-10-12T09:11:11.666Z,60.63
2017-10-12T09:12:22.106Z,60.63
2017-10-12T09:13:32.584Z,60.91
2017-10-12T09:14:43.178Z,60.63
2017-10-12T09:15:53.664Z,61.01
2017-10-12T09:17:04.207Z,60.72
2017-10-12T09:18:14.646Z,60.72
2017-10-12T09:19:25.213Z,60.98
2017-10-12T09:20:35.676Z,60.88
2017-10-12T09:21:46.129Z,61.36
2017-10-12T09:22:55.951Z,61.27
2017-10-12T09:24:06.442Z,61.08
2017-10-12T09:25:16.955Z,60.98
2017-10-12T09:26:27.474Z,60.88
2017-10-12T09:27:37.675Z,60.5
2017-10-12T09:28:48.109Z,60.69
2017-10-12T09:29:58.677Z,60.57
2017-10-12T09:31:09.153Z,60.85
2017-10-12T09:32:19.274Z,60.02
2017-10-12T09:33:29.780Z,60.14
2017-10-12T09:34:40.290Z,59.28
2017-10-12T09:35:50.767Z,58.54
2017-10-12T09:37:01.283Z,58.64
2017-10-12T09:38:11.433Z,58.25
2017-10-12T09:39:21.560Z,58.35
2017-10-12T09:40:32.026Z,58.42
2017-10-12T09:41:42.524Z,58.35
2017-10-12T09:42:53.058Z,58.83
2017-10-12T09:44:03.680Z,58.73
2017-10-12T09:45:14.138Z,57.39
2017-10-12T09:46:24.639Z,58.25
2017-10-12T09:47:35.329Z,58.06
2017-10-12T09:48:45.797Z,57.48
2017-10-12T09:49:55.751Z,56.68
2017-10-12T09:51:06.195Z,57.55
2017-10-12T09:52:16.634Z,58.48
2017-10-12T09:53:27.085Z,59.44
2017-10-12T09:54:37.224Z,59.22
2017-10-12T09:55:47.717Z,59.32
2017-10-12T09:56:58.176Z,56.68
2017-10-12T09:58:08.329Z,56.33
2017-10-12T09:59:18.778Z,55.76
2017-10-12T10:00:29.605Z,55.46
2017-10-12T10:01:40.428Z,55.18
2017-10-12T10:02:50.884Z,55.18
2017-10-12T10:04:01.389Z,55.15
2017-10-12T10:05:11.868Z,56.18
2017-10-12T10:06:22.379Z,56.76
2017-10-12T10:07:32.862Z,57.14
2017-10-12T10:08:44.073Z,58.17
2017-10-12T10:09:53.916Z,58.74
2017-10-12T10:11:04.374Z,59.03
2017-10-12T10:12:15.493Z,59.51
2017-10-12T10:13:25.964Z,59.32
2017-10-12T10:14:36.091Z,59.51
2017-10-12T10:15:47.590Z,60.05
2017-10-12T10:16:58.053Z,60.53
2017-10-12T10:18:08.419Z,60.72
2017-10-12T10:19:18.904Z,59.86
2017-10-12T10:20:29.411Z,60.41
2017-10-12T10:21:39.894Z,60.31
2017-10-12T10:22:50.362Z,60.12
2017-10-12T10:24:00.561Z,60.89
2017-10-12T10:25:10.406Z,61.56
2017-10-12T10:26:20.838Z,61.72
2017-10-12T10:27:31.312Z,61.43
2017-10-12T10:28:41.773Z,61.53
2017-10-12T10:29:52.245Z,61.91
2017-10-12T10:31:02.699Z,61.63
2017-10-12T10:32:12.834Z,61.72
2017-10-12T10:33:23.525Z,61.63
2017-10-12T10:34:33.967Z,61.43
2017-10-12T10:35:44.405Z,60.19
2017-10-12T10:36:54.525Z,60.19
2017-10-12T10:38:04.683Z,60.22
2017-10-12T10:39:14.826Z,60.6
2017-10-12T10:40:25.295Z,60.41
2017-10-12T10:41:35.826Z,60.12
2017-10-12T10:42:46.263Z,60.22
2017-10-12T10:43:56.525Z,60.15
2017-10-12T10:45:06.987Z,59.58
2017-10-12T10:46:17.455Z,59
2017-10-12T10:47:27.687Z,58.62
2017-10-12T10:48:37.828Z,58.23
2017-10-12T10:49:48.329Z,58.42
2017-10-12T10:50:58.571Z,58.33
2017-10-12T10:52:09.027Z,58.62
2017-10-12T10:53:19.489Z,58.04
2017-10-12T10:54:29.943Z,58.42
2017-10-12T10:55:40.423Z,59.29
2017-10-12T10:56:50.897Z,59.48
2017-10-12T10:58:01.449Z,58.69
2017-10-12T10:59:11.683Z,57.82
2017-10-12T11:00:22.284Z,58.11
2017-10-12T11:01:32.756Z,57.92
2017-10-12T11:02:43.227Z,57.72
2017-10-12T11:03:53.681Z,57.06
2017-10-12T11:05:03.897Z,57.15
2017-10-12T11:06:14.389Z,57.06
2017-10-12T11:07:24.905Z,56.6
2017-10-12T11:08:34.972Z,55.45
2017-10-12T11:09:45.433Z,54.71
2017-10-12T11:10:55.930Z,54.71
2017-10-12T11:12:05.781Z,54.55
2017-10-12T11:13:16.268Z,53.52
2017-10-12T11:14:26.735Z,52.29
2017-10-12T11:15:37.205Z,50.49
2017-10-12T11:16:47.674Z,49.17
2017-10-12T11:17:58.108Z,46.78
2017-10-12T11:19:08.624Z,46.91
2017-10-12T11:21:32.301Z,46.37
2017-10-12T11:22:42.992Z,46.11
2017-10-12T11:23:53.477Z,44.29
2017-10-12T11:25:03.719Z,43.64
2017-10-12T11:26:14.239Z,40.94
2017-10-12T11:27:24.705Z,39.69
2017-10-12T11:28:35.151Z,39.32
2017-10-12T11:29:46.913Z,39.41
2017-10-12T11:30:59.337Z,38.74
2017-10-12T11:32:09.794Z,39.51
2017-10-12T11:33:20.263Z,39.41
2017-10-12T11:34:30.731Z,39.41
2017-10-12T11:35:41.927Z,38.25
2017-10-12T11:36:52.481Z,38.83
2017-10-12T11:38:02.965Z,39.8
2017-10-12T11:39:14.402Z,39.41
2017-10-12T11:40:24.861Z,39.41
2017-10-12T11:41:35.322Z,39.61
2017-10-12T11:42:45.155Z,38.45
2017-10-12T11:43:57.863Z,38.16
2017-10-12T11:45:08.053Z,38.35
2017-10-12T11:46:17.783Z,38.35
2017-10-12T11:47:28.276Z,38.16
2017-10-12T11:48:38.740Z,39.61
2017-10-12T11:49:49.259Z,38.28
2017-10-12T11:50:59.773Z,37.6
2017-10-12T11:52:10.318Z,36.92
2017-10-12T11:53:20.886Z,37.5
2017-10-12T11:54:31.402Z,37.21
2017-10-12T11:55:41.856Z,37.19
2017-10-12T11:56:52.431Z,37.58
2017-10-12T11:58:02.588Z,38.64
2017-10-12T11:59:13.093Z,38.81
2017-10-12T12:00:23.341Z,38.64
2017-10-12T12:01:33.930Z,38.06
2017-10-12T12:02:44.065Z,38.45
2017-10-12T12:03:54.525Z,38.06
2017-10-12T12:05:05.107Z,38.45
2017-10-12T12:06:15.617Z,38.35
2017-10-12T12:07:26.083Z,38.85
2017-10-12T12:08:36.268Z,38.18
2017-10-12T12:09:46.744Z,38.28
2017-10-12T12:10:57.243Z,37.42
2017-10-12T12:12:07.953Z,37.6
2017-10-12T12:13:17.939Z,36.53
2017-10-12T12:14:28.454Z,36.71
2017-10-12T12:15:38.991Z,37.38
2017-10-12T12:16:49.499Z,38.25
2017-10-12T12:17:59.993Z,39.39
2017-10-12T12:19:10.132Z,40.05
2017-10-12T12:20:20.592Z,40.42
2017-10-12T12:21:31.191Z,41.19
2017-10-12T12:22:41.799Z,41.36
2017-10-12T12:23:52.249Z,41.84
2017-10-12T12:25:02.957Z,41.07
2017-10-12T12:26:13.454Z,41.67
2017-10-12T12:27:23.930Z,41.84
2017-10-12T12:28:34.422Z,42.23
2017-10-12T12:29:44.551Z,41.67
2017-10-12T12:30:56.152Z,41.38
2017-10-12T12:32:05.907Z,41.86
2017-10-12T12:33:16.448Z,42.15
2017-10-12T12:34:26.927Z,42.25
2017-10-12T12:35:37.444Z,42.32
2017-10-12T12:36:47.908Z,42.93
2017-10-12T12:37:58.059Z,41.57
2017-10-12T12:39:08.575Z,41.96
2017-10-12T12:40:19.073Z,41.84
2017-10-12T12:41:29.252Z,42.32
2017-10-12T12:42:39.771Z,42.42
2017-10-12T12:43:50.250Z,42.97
2017-10-12T12:45:00.716Z,44.04
2017-10-12T12:46:11.223Z,43.94
2017-10-12T12:47:21.443Z,44.42
2017-10-12T12:48:31.676Z,44.32
2017-10-12T12:49:41.901Z,43.87
2017-10-12T12:50:52.513Z,43.58
2017-10-12T12:52:02.992Z,43.29
2017-10-12T12:53:13.490Z,43
2017-10-12T12:54:24.032Z,43.38
2017-10-12T12:55:34.490Z,44.15
2017-10-12T12:56:45.215Z,43.77
2017-10-12T12:57:55.692Z,44.32
2017-10-12T12:59:06.315Z,44.81
2017-10-12T13:00:16.762Z,43.75
2017-10-12T13:01:26.901Z,42.49
2017-10-12T13:02:37.442Z,42.4
2017-10-12T13:03:47.988Z,42.11
2017-10-12T13:04:58.482Z,42.11
2017-10-12T13:06:09.210Z,42.59
2017-10-12T13:07:19.402Z,42.86
2017-10-12T13:08:29.995Z,42.86
2017-10-12T13:09:40.521Z,43.24
2017-10-12T13:10:51.078Z,42.67
2017-10-12T13:12:01.598Z,42.96
2017-10-12T13:13:12.128Z,42.67
2017-10-12T13:14:22.650Z,42.67
2017-10-12T13:15:33.181Z,42.86
2017-10-12T13:16:43.779Z,43.51
2017-10-12T13:17:53.976Z,44.28
2017-10-12T13:19:04.607Z,44.67
2017-10-12T13:20:15.151Z,45.51
2017-10-12T13:21:25.741Z,45.7
2017-10-12T13:22:36.337Z,45.99
2017-10-12T13:23:46.965Z,46.19
2017-10-12T13:24:57.556Z,46.06
2017-10-12T13:26:07.849Z,46.64
2017-10-12T13:27:18.498Z,46.93
2017-10-12T13:28:29.200Z,47.03
2017-10-12T13:29:39.544Z,47.58
2017-10-12T13:30:50.142Z,47.68
2017-10-12T13:32:00.705Z,47.68
2017-10-12T13:33:11.215Z,47.87
2017-10-12T13:34:21.732Z,48.35
2017-10-12T13:35:32.328Z,48.54
2017-10-12T13:36:42.544Z,48.35
2017-10-12T13:37:52.721Z,48.16
2017-10-12T13:39:03.313Z,48.43
2017-10-12T13:40:13.804Z,48.93
2017-10-12T13:41:24.363Z,48.9
2017-10-12T13:42:35.016Z,48.9
2017-10-12T13:43:45.708Z,49
2017-10-12T13:44:56.252Z,49.87
2017-10-12T13:46:06.521Z,49.96
2017-10-12T13:47:17.072Z,50.15
2017-10-12T13:48:27.567Z,50.05
2017-10-12T13:49:38.174Z,50.34
2017-10-12T13:50:48.828Z,50.15
2017-10-12T13:51:59.509Z,50.25
2017-10-12T13:53:09.927Z,50.54
2017-10-12T13:54:20.701Z,50.23
2017-10-12T13:55:31.476Z,50.13
2017-10-12T13:56:42.321Z,50.23
2017-10-12T13:57:52.357Z,50.23
2017-10-12T13:59:03.533Z,50.23
2017-10-12T14:00:14.564Z,50.9
2017-10-12T14:01:25.654Z,51.09
2017-10-12T14:02:36.555Z,50.7
2017-10-12T14:03:48.406Z,50.8
2017-10-12T14:04:59.167Z,50.39
2017-10-12T14:06:09.857Z,50.96
2017-10-12T14:07:20.096Z,50.96
2017-10-12T14:08:30.319Z,50.87
2017-10-12T14:09:40.461Z,51.25
2017-10-12T14:10:50.603Z,51.25
2017-10-12T14:12:01.100Z,51.54
2017-10-12T14:13:11.573Z,52.22
2017-10-12T14:14:22.005Z,51.35
2017-10-12T14:15:32.474Z,51.45
2017-10-12T14:16:43.217Z,51.81
2017-10-12T14:17:53.396Z,51.81
2017-10-12T14:19:03.900Z,51.9
2017-10-12T14:20:14.383Z,52.28
2017-10-12T14:21:24.614Z,52.09
2017-10-12T14:22:35.216Z,52.4
2017-10-12T14:23:45.698Z,52.19
2017-10-12T14:24:56.184Z,52.5
2017-10-12T14:26:06.704Z,52.4
2017-10-12T14:27:17.182Z,52.22
2017-10-12T14:28:27.450Z,52.31
2017-10-12T14:29:37.957Z,52.69
2017-10-12T14:30:48.437Z,52.89
2017-10-12T14:31:59.178Z,52.69
2017-10-12T14:33:09.682Z,52.79
2017-10-12T14:34:20.200Z,53.08
2017-10-12T14:35:30.711Z,52.98
2017-10-12T14:36:41.181Z,52.98
2017-10-12T14:37:51.693Z,53.36
2017-10-12T14:39:01.907Z,53.17
2017-10-12T14:40:12.534Z,53.27
2017-10-12T14:41:23.022Z,53.08
2017-10-12T14:42:33.092Z,53.66
2017-10-12T14:43:43.626Z,53.56
2017-10-12T14:44:54.134Z,53.56
2017-10-12T14:46:04.658Z,54.13
2017-10-12T14:47:15.146Z,54.13
2017-10-12T14:48:25.649Z,54.23
2017-10-12T14:49:35.967Z,54.42
2017-10-12T14:50:46.469Z,54.39
2017-10-12T14:51:56.668Z,54.49
2017-10-12T14:53:07.173Z,54.3
2017-10-12T14:54:17.669Z,55.07
2017-10-12T14:55:29.225Z,54.97
2017-10-12T14:56:39.286Z,55.35
2017-10-12T14:57:49.770Z,55.45
2017-10-12T14:59:00.283Z,55.26
2017-10-12T15:00:11.051Z,55.45
2017-10-12T15:01:21.585Z,55.74
2017-10-12T15:02:32.071Z,56.31
2017-10-12T15:03:42.645Z,56.22
2017-10-12T15:04:53.352Z,56.31
2017-10-12T15:06:03.824Z,56.51
2017-10-12T15:07:14.104Z,56.7
2017-10-12T15:08:24.697Z,56.79
2017-10-12T15:09:35.167Z,56.79
2017-10-12T15:10:45.672Z,57.37
2017-10-12T15:11:55.857Z,57.43